sensor_id;sensor_type;location;lat;lon;timestamp;temperature;humidity
80132;SHT30;69442;51.442;10.564;2024-02-15T00:01:26;9.89;87.60
80132;SHT30;69442;51.442;10.564;2024-02-15T00:03:51;9.93;88.20
80132;SHT30;69442;51.442;10.564;2024-02-15T00:06:17;9.92;87.58
80132;SHT30;69442;51.442;10.564;2024-02-15T00:08:42;9.93;88.49
80132;SHT30;69442;51.442;10.564;2024-02-15T00:11:07;9.91;88.88
80132;SHT30;69442;51.442;10.564;2024-02-15T00:13:34;9.92;88.99
80132;SHT30;69442;51.442;10.564;2024-02-15T00:16:01;9.92;88.25
80132;SHT30;69442;51.442;10.564;2024-02-15T00:18:27;9.93;88.55
80132;SHT30;69442;51.442;10.564;2024-02-15T00:20:52;9.95;88.62
80132;SHT30;69442;51.442;10.564;2024-02-15T00:23:18;9.92;88.71
80132;SHT30;69442;51.442;10.564;2024-02-15T00:25:43;9.93;88.55
80132;SHT30;69442;51.442;10.564;2024-02-15T00:28:11;9.95;87.81
80132;SHT30;69442;51.442;10.564;2024-02-15T00:30:37;9.93;88.79
80132;SHT30;69442;51.442;10.564;2024-02-15T00:33:02;9.95;89.05
80132;SHT30;69442;51.442;10.564;2024-02-15T00:35:28;9.93;88.83
80132;SHT30;69442;51.442;10.564;2024-02-15T00:37:53;9.96;88.73
80132;SHT30;69442;51.442;10.564;2024-02-15T00:40:19;9.96;89.01
80132;SHT30;69442;51.442;10.564;2024-02-15T00:42:46;9.98;88.40
80132;SHT30;69442;51.442;10.564;2024-02-15T00:45:12;9.98;88.67
80132;SHT30;69442;51.442;10.564;2024-02-15T00:47:37;9.95;89.11
80132;SHT30;69442;51.442;10.564;2024-02-15T00:50:10;9.96;89.03
80132;SHT30;69442;51.442;10.564;2024-02-15T00:52:35;9.96;89.14
80132;SHT30;69442;51.442;10.564;2024-02-15T00:55:01;9.96;88.43
80132;SHT30;69442;51.442;10.564;2024-02-15T00:57:26;9.96;89.05
80132;SHT30;69442;51.442;10.564;2024-02-15T00:59:52;9.96;89.07
80132;SHT30;69442;51.442;10.564;2024-02-15T01:02:17;9.98;89.08
80132;SHT30;69442;51.442;10.564;2024-02-15T01:04:43;9.95;89.17
80132;SHT30;69442;51.442;10.564;2024-02-15T01:07:10;9.95;88.83
80132;SHT30;69442;51.442;10.564;2024-02-15T01:09:36;9.99;88.60
80132;SHT30;69442;51.442;10.564;2024-02-15T01:12:01;9.98;88.55
80132;SHT30;69442;51.442;10.564;2024-02-15T01:14:29;9.98;88.58
80132;SHT30;69442;51.442;10.564;2024-02-15T01:16:56;9.98;89.08
80132;SHT30;69442;51.442;10.564;2024-02-15T01:19:21;9.99;89.22
80132;SHT30;69442;51.442;10.564;2024-02-15T01:21:46;10.01;89.31
80132;SHT30;69442;51.442;10.564;2024-02-15T01:24:12;9.99;89.14
80132;SHT30;69442;51.442;10.564;2024-02-15T01:26:37;9.98;88.87
80132;SHT30;69442;51.442;10.564;2024-02-15T01:29:03;9.99;88.87
80132;SHT30;69442;51.442;10.564;2024-02-15T01:31:28;10.02;89.20
80132;SHT30;69442;51.442;10.564;2024-02-15T01:33:54;9.99;89.02
80132;SHT30;69442;51.442;10.564;2024-02-15T01:36:19;9.99;88.92
80132;SHT30;69442;51.442;10.564;2024-02-15T01:38:45;10.01;89.04
80132;SHT30;69442;51.442;10.564;2024-02-15T01:41:11;9.98;89.08
80132;SHT30;69442;51.442;10.564;2024-02-15T01:43:36;10.01;88.49
80132;SHT30;69442;51.442;10.564;2024-02-15T01:46:08;10.02;88.67
80132;SHT30;69442;51.442;10.564;2024-02-15T01:48:37;10.05;88.58
80132;SHT30;69442;51.442;10.564;2024-02-15T01:51:03;10.02;89.07
80132;SHT30;69442;51.442;10.564;2024-02-15T01:53:29;10.01;88.14
80132;SHT30;69442;51.442;10.564;2024-02-15T01:55:56;10.02;88.81
80132;SHT30;69442;51.442;10.564;2024-02-15T01:58:24;10.08;88.72
80132;SHT30;69442;51.442;10.564;2024-02-15T02:00:49;10.05;88.63
80132;SHT30;69442;51.442;10.564;2024-02-15T02:03:16;10.06;88.91
80132;SHT30;69442;51.442;10.564;2024-02-15T02:05:42;10.05;88.87
80132;SHT30;69442;51.442;10.564;2024-02-15T02:08:07;10.03;88.31
80132;SHT30;69442;51.442;10.564;2024-02-15T02:10:37;10.06;88.47
80132;SHT30;69442;51.442;10.564;2024-02-15T02:13:02;10.08;88.56
80132;SHT30;69442;51.442;10.564;2024-02-15T02:15:28;10.09;88.46
80132;SHT30;69442;51.442;10.564;2024-02-15T02:17:57;10.08;88.23
80132;SHT30;69442;51.442;10.564;2024-02-15T02:20:25;10.06;88.35
80132;SHT30;69442;51.442;10.564;2024-02-15T02:22:51;10.09;88.16
80132;SHT30;69442;51.442;10.564;2024-02-15T02:25:20;10.09;88.61
80132;SHT30;69442;51.442;10.564;2024-02-15T02:27:47;10.10;88.91
80132;SHT30;69442;51.442;10.564;2024-02-15T02:30:15;10.09;88.72
80132;SHT30;69442;51.442;10.564;2024-02-15T02:32:43;10.10;89.02
80132;SHT30;69442;51.442;10.564;2024-02-15T02:35:09;10.10;89.04
80132;SHT30;69442;51.442;10.564;2024-02-15T02:37:37;10.13;89.52
80132;SHT30;69442;51.442;10.564;2024-02-15T02:40:07;10.10;89.42
80132;SHT30;69442;51.442;10.564;2024-02-15T02:42:37;10.08;89.47
80132;SHT30;69442;51.442;10.564;2024-02-15T02:45:11;10.09;88.94
80132;SHT30;69442;51.442;10.564;2024-02-15T02:47:36;10.12;88.22
80132;SHT30;69442;51.442;10.564;2024-02-15T02:50:02;10.13;89.04
80132;SHT30;69442;51.442;10.564;2024-02-15T02:52:28;10.13;88.17
80132;SHT30;69442;51.442;10.564;2024-02-15T02:54:53;10.16;88.39
80132;SHT30;69442;51.442;10.564;2024-02-15T02:57:19;10.13;87.87
80132;SHT30;69442;51.442;10.564;2024-02-15T02:59:44;10.16;88.33
80132;SHT30;69442;51.442;10.564;2024-02-15T03:02:10;10.17;88.48
80132;SHT30;69442;51.442;10.564;2024-02-15T03:04:35;10.19;88.93
80132;SHT30;69442;51.442;10.564;2024-02-15T03:07:01;10.16;88.57
80132;SHT30;69442;51.442;10.564;2024-02-15T03:09:26;10.19;88.89
80132;SHT30;69442;51.442;10.564;2024-02-15T03:11:54;10.19;88.91
80132;SHT30;69442;51.442;10.564;2024-02-15T03:14:20;10.20;88.73
80132;SHT30;69442;51.442;10.564;2024-02-15T03:16:45;10.19;88.91
80132;SHT30;69442;51.442;10.564;2024-02-15T03:19:11;10.20;89.02
80132;SHT30;69442;51.442;10.564;2024-02-15T03:21:37;10.19;88.92
80132;SHT30;69442;51.442;10.564;2024-02-15T03:24:02;10.19;88.99
80132;SHT30;69442;51.442;10.564;2024-02-15T03:26:32;10.20;89.19
80132;SHT30;69442;51.442;10.564;2024-02-15T03:29:05;10.20;88.86
80132;SHT30;69442;51.442;10.564;2024-02-15T03:31:33;10.19;88.69
80132;SHT30;69442;51.442;10.564;2024-02-15T03:34:02;10.21;89.00
80132;SHT30;69442;51.442;10.564;2024-02-15T03:36:27;10.20;88.94
80132;SHT30;69442;51.442;10.564;2024-02-15T03:38:54;10.21;89.09
80132;SHT30;69442;51.442;10.564;2024-02-15T03:41:20;10.20;88.84
80132;SHT30;69442;51.442;10.564;2024-02-15T03:43:45;10.24;89.08
80132;SHT30;69442;51.442;10.564;2024-02-15T03:46:12;10.21;89.45
80132;SHT30;69442;51.442;10.564;2024-02-15T03:48:39;10.20;88.97
80132;SHT30;69442;51.442;10.564;2024-02-15T03:51:04;10.24;88.96
80132;SHT30;69442;51.442;10.564;2024-02-15T03:53:31;10.26;88.96
80132;SHT30;69442;51.442;10.564;2024-02-15T03:55:58;10.24;89.09
80132;SHT30;69442;51.442;10.564;2024-02-15T03:58:25;10.23;89.03
80132;SHT30;69442;51.442;10.564;2024-02-15T04:00:51;10.24;89.12
80132;SHT30;69442;51.442;10.564;2024-02-15T04:03:16;10.27;89.02
80132;SHT30;69442;51.442;10.564;2024-02-15T04:05:41;10.26;89.02
80132;SHT30;69442;51.442;10.564;2024-02-15T04:08:07;10.26;88.79
80132;SHT30;69442;51.442;10.564;2024-02-15T04:10:33;10.26;88.60
80132;SHT30;69442;51.442;10.564;2024-02-15T04:12:59;10.30;88.91
80132;SHT30;69442;51.442;10.564;2024-02-15T04:15:24;10.32;89.08
80132;SHT30;69442;51.442;10.564;2024-02-15T04:17:50;10.29;89.13
80132;SHT30;69442;51.442;10.564;2024-02-15T04:20:21;10.29;89.14
80132;SHT30;69442;51.442;10.564;2024-02-15T04:22:46;10.29;89.39
80132;SHT30;69442;51.442;10.564;2024-02-15T04:25:12;10.30;88.85
80132;SHT30;69442;51.442;10.564;2024-02-15T04:27:41;10.29;89.25
80132;SHT30;69442;51.442;10.564;2024-02-15T04:30:07;10.30;89.16
80132;SHT30;69442;51.442;10.564;2024-02-15T04:32:33;10.29;89.44
80132;SHT30;69442;51.442;10.564;2024-02-15T04:35:00;10.29;89.31
80132;SHT30;69442;51.442;10.564;2024-02-15T04:37:26;10.29;89.20
80132;SHT30;69442;51.442;10.564;2024-02-15T04:39:54;10.30;89.01
80132;SHT30;69442;51.442;10.564;2024-02-15T04:42:19;10.32;89.24
80132;SHT30;69442;51.442;10.564;2024-02-15T04:44:45;10.32;88.96
80132;SHT30;69442;51.442;10.564;2024-02-15T04:47:11;10.30;88.60
80132;SHT30;69442;51.442;10.564;2024-02-15T04:49:36;10.33;89.04
80132;SHT30;69442;51.442;10.564;2024-02-15T04:52:05;10.32;88.62
80132;SHT30;69442;51.442;10.564;2024-02-15T04:54:31;10.32;88.86
80132;SHT30;69442;51.442;10.564;2024-02-15T04:56:58;10.33;89.04
80132;SHT30;69442;51.442;10.564;2024-02-15T04:59:23;10.33;89.21
80132;SHT30;69442;51.442;10.564;2024-02-15T05:01:52;10.32;89.24
80132;SHT30;69442;51.442;10.564;2024-02-15T05:04:17;10.30;89.21
80132;SHT30;69442;51.442;10.564;2024-02-15T05:06:43;10.32;89.14
80132;SHT30;69442;51.442;10.564;2024-02-15T05:09:10;10.30;89.07
80132;SHT30;69442;51.442;10.564;2024-02-15T05:11:39;10.34;88.72
80132;SHT30;69442;51.442;10.564;2024-02-15T05:14:13;10.34;89.06
80132;SHT30;69442;51.442;10.564;2024-02-15T05:16:47;10.32;89.01
80132;SHT30;69442;51.442;10.564;2024-02-15T05:19:16;10.33;89.06
80132;SHT30;69442;51.442;10.564;2024-02-15T05:21:42;10.36;88.87
80132;SHT30;69442;51.442;10.564;2024-02-15T05:24:11;10.37;89.15
80132;SHT30;69442;51.442;10.564;2024-02-15T05:26:39;10.34;89.04
80132;SHT30;69442;51.442;10.564;2024-02-15T05:29:04;10.36;88.99
80132;SHT30;69442;51.442;10.564;2024-02-15T05:31:30;10.37;88.87
80132;SHT30;69442;51.442;10.564;2024-02-15T05:33:55;10.37;88.91
80132;SHT30;69442;51.442;10.564;2024-02-15T05:36:21;10.36;89.06
80132;SHT30;69442;51.442;10.564;2024-02-15T05:38:51;10.37;88.79
80132;SHT30;69442;51.442;10.564;2024-02-15T05:41:20;10.40;88.89
80132;SHT30;69442;51.442;10.564;2024-02-15T05:43:46;10.38;88.49
80132;SHT30;69442;51.442;10.564;2024-02-15T05:46:13;10.40;87.98
80132;SHT30;69442;51.442;10.564;2024-02-15T05:48:39;10.40;88.56
80132;SHT30;69442;51.442;10.564;2024-02-15T05:51:06;10.38;88.68
80132;SHT30;69442;51.442;10.564;2024-02-15T05:53:32;10.40;89.07
80132;SHT30;69442;51.442;10.564;2024-02-15T05:56:05;10.41;89.14
80132;SHT30;69442;51.442;10.564;2024-02-15T05:58:35;10.38;89.08
80132;SHT30;69442;51.442;10.564;2024-02-15T06:01:02;10.41;89.08
80132;SHT30;69442;51.442;10.564;2024-02-15T06:03:31;10.40;89.31
80132;SHT30;69442;51.442;10.564;2024-02-15T06:05:59;10.43;88.84
80132;SHT30;69442;51.442;10.564;2024-02-15T06:08:29;10.41;89.17
80132;SHT30;69442;51.442;10.564;2024-02-15T06:10:55;10.41;89.31
80132;SHT30;69442;51.442;10.564;2024-02-15T06:13:21;10.41;89.15
80132;SHT30;69442;51.442;10.564;2024-02-15T06:15:47;10.40;89.14
80132;SHT30;69442;51.442;10.564;2024-02-15T06:18:18;10.44;88.75
80132;SHT30;69442;51.442;10.564;2024-02-15T06:20:47;10.41;88.20
80132;SHT30;69442;51.442;10.564;2024-02-15T06:23:15;10.40;88.52
80132;SHT30;69442;51.442;10.564;2024-02-15T06:25:40;10.40;88.13
80132;SHT30;69442;51.442;10.564;2024-02-15T06:28:06;10.40;88.70
80132;SHT30;69442;51.442;10.564;2024-02-15T06:30:41;10.40;88.61
80132;SHT30;69442;51.442;10.564;2024-02-15T06:33:25;10.40;89.00
80132;SHT30;69442;51.442;10.564;2024-02-15T06:36:09;10.44;89.50
80132;SHT30;69442;51.442;10.564;2024-02-15T06:38:53;10.37;89.18
80132;SHT30;69442;51.442;10.564;2024-02-15T06:41:37;10.36;89.12
80132;SHT30;69442;51.442;10.564;2024-02-15T06:44:03;10.38;88.81
80132;SHT30;69442;51.442;10.564;2024-02-15T06:46:28;10.40;88.80
80132;SHT30;69442;51.442;10.564;2024-02-15T06:48:54;10.40;88.73
80132;SHT30;69442;51.442;10.564;2024-02-15T06:51:20;10.40;88.26
80132;SHT30;69442;51.442;10.564;2024-02-15T06:53:45;10.41;88.28
80132;SHT30;69442;51.442;10.564;2024-02-15T06:56:11;10.44;88.38
80132;SHT30;69442;51.442;10.564;2024-02-15T06:58:39;10.43;88.66
80132;SHT30;69442;51.442;10.564;2024-02-15T07:01:05;10.44;88.40
80132;SHT30;69442;51.442;10.564;2024-02-15T07:03:31;10.47;88.43
80132;SHT30;69442;51.442;10.564;2024-02-15T07:05:57;10.50;88.15
80132;SHT30;69442;51.442;10.564;2024-02-15T07:08:23;10.50;88.51
80132;SHT30;69442;51.442;10.564;2024-02-15T07:10:51;10.47;88.53
80132;SHT30;69442;51.442;10.564;2024-02-15T07:13:17;10.50;88.52
80132;SHT30;69442;51.442;10.564;2024-02-15T07:15:44;10.50;88.77
80132;SHT30;69442;51.442;10.564;2024-02-15T07:18:12;10.51;88.55
80132;SHT30;69442;51.442;10.564;2024-02-15T07:20:37;10.55;88.66
80132;SHT30;69442;51.442;10.564;2024-02-15T07:23:03;10.54;88.33
80132;SHT30;69442;51.442;10.564;2024-02-15T07:25:29;10.57;88.51
80132;SHT30;69442;51.442;10.564;2024-02-15T07:27:54;10.58;88.37
80132;SHT30;69442;51.442;10.564;2024-02-15T07:30:22;10.58;88.75
80132;SHT30;69442;51.442;10.564;2024-02-15T07:32:48;10.60;88.04
80132;SHT30;69442;51.442;10.564;2024-02-15T07:35:14;10.63;88.13
80132;SHT30;69442;51.442;10.564;2024-02-15T07:37:51;10.63;88.46
80132;SHT30;69442;51.442;10.564;2024-02-15T07:40:17;10.64;88.59
80132;SHT30;69442;51.442;10.564;2024-02-15T07:42:42;10.65;88.48
80132;SHT30;69442;51.442;10.564;2024-02-15T07:45:08;10.68;88.54
80132;SHT30;69442;51.442;10.564;2024-02-15T07:47:35;10.69;88.77
80132;SHT30;69442;51.442;10.564;2024-02-15T07:50:00;10.71;88.63
80132;SHT30;69442;51.442;10.564;2024-02-15T07:52:26;10.74;89.23
80132;SHT30;69442;51.442;10.564;2024-02-15T07:54:51;10.75;88.95
80132;SHT30;69442;51.442;10.564;2024-02-15T07:57:17;10.78;88.78
80132;SHT30;69442;51.442;10.564;2024-02-15T07:59:43;10.79;88.82
80132;SHT30;69442;51.442;10.564;2024-02-15T08:02:09;10.82;88.96
80132;SHT30;69442;51.442;10.564;2024-02-15T08:04:35;10.85;88.68
80132;SHT30;69442;51.442;10.564;2024-02-15T08:07:06;10.86;88.34
80132;SHT30;69442;51.442;10.564;2024-02-15T08:09:35;10.91;88.53
80132;SHT30;69442;51.442;10.564;2024-02-15T08:12:01;10.95;88.29
80132;SHT30;69442;51.442;10.564;2024-02-15T08:14:28;10.96;88.12
80132;SHT30;69442;51.442;10.564;2024-02-15T08:16:53;10.98;88.49
80132;SHT30;69442;51.442;10.564;2024-02-15T08:19:20;10.98;87.42
80132;SHT30;69442;51.442;10.564;2024-02-15T08:21:48;11.03;88.14
80132;SHT30;69442;51.442;10.564;2024-02-15T08:24:16;11.03;87.83
80132;SHT30;69442;51.442;10.564;2024-02-15T08:26:42;11.03;87.59
80132;SHT30;69442;51.442;10.564;2024-02-15T08:29:08;11.05;87.50
80132;SHT30;69442;51.442;10.564;2024-02-15T08:31:35;11.09;88.37
80132;SHT30;69442;51.442;10.564;2024-02-15T08:34:03;11.07;87.77
80132;SHT30;69442;51.442;10.564;2024-02-15T08:36:31;11.10;87.78
80132;SHT30;69442;51.442;10.564;2024-02-15T08:38:56;11.12;87.87
80132;SHT30;69442;51.442;10.564;2024-02-15T08:41:21;11.16;87.65
80132;SHT30;69442;51.442;10.564;2024-02-15T08:43:52;11.16;88.03
80132;SHT30;69442;51.442;10.564;2024-02-15T08:46:17;11.16;88.20
80132;SHT30;69442;51.442;10.564;2024-02-15T08:48:43;11.19;87.82
80132;SHT30;69442;51.442;10.564;2024-02-15T08:51:09;11.22;88.22
80132;SHT30;69442;51.442;10.564;2024-02-15T08:53:35;11.22;88.27
80132;SHT30;69442;51.442;10.564;2024-02-15T08:56:06;11.22;88.27
80132;SHT30;69442;51.442;10.564;2024-02-15T08:58:34;11.24;88.06
80132;SHT30;69442;51.442;10.564;2024-02-15T09:01:00;11.26;88.17
80132;SHT30;69442;51.442;10.564;2024-02-15T09:03:25;11.27;88.07
80132;SHT30;69442;51.442;10.564;2024-02-15T09:05:51;11.28;87.84
80132;SHT30;69442;51.442;10.564;2024-02-15T09:08:16;11.31;87.89
80132;SHT30;69442;51.442;10.564;2024-02-15T09:10:49;11.34;88.09
80132;SHT30;69442;51.442;10.564;2024-02-15T09:13:15;11.37;88.03
80132;SHT30;69442;51.442;10.564;2024-02-15T09:15:40;11.37;87.23
80132;SHT30;69442;51.442;10.564;2024-02-15T09:18:07;11.40;88.04
80132;SHT30;69442;51.442;10.564;2024-02-15T09:20:35;11.41;87.44
80132;SHT30;69442;51.442;10.564;2024-02-15T09:23:02;11.45;87.71
80132;SHT30;69442;51.442;10.564;2024-02-15T09:25:34;11.48;87.74
80132;SHT30;69442;51.442;10.564;2024-02-15T09:28:01;11.52;87.62
80132;SHT30;69442;51.442;10.564;2024-02-15T09:30:28;11.55;87.53
80132;SHT30;69442;51.442;10.564;2024-02-15T09:32:53;11.58;87.47
80132;SHT30;69442;51.442;10.564;2024-02-15T09:35:19;11.64;87.51
80132;SHT30;69442;51.442;10.564;2024-02-15T09:37:46;11.65;86.31
80132;SHT30;69442;51.442;10.564;2024-02-15T09:40:14;11.69;86.79
80132;SHT30;69442;51.442;10.564;2024-02-15T09:42:41;11.72;86.47
80132;SHT30;69442;51.442;10.564;2024-02-15T09:45:08;11.78;86.31
80132;SHT30;69442;51.442;10.564;2024-02-15T09:47:38;11.83;86.18
80132;SHT30;69442;51.442;10.564;2024-02-15T09:50:10;11.86;85.66
80132;SHT30;69442;51.442;10.564;2024-02-15T09:52:59;11.89;85.93
80132;SHT30;69442;51.442;10.564;2024-02-15T09:55:28;11.92;85.71
80132;SHT30;69442;51.442;10.564;2024-02-15T09:57:54;11.95;85.41
80132;SHT30;69442;51.442;10.564;2024-02-15T10:00:20;11.97;85.64
80132;SHT30;69442;51.442;10.564;2024-02-15T10:02:52;11.97;85.42
80132;SHT30;69442;51.442;10.564;2024-02-15T10:05:18;11.99;85.22
80132;SHT30;69442;51.442;10.564;2024-02-15T10:07:45;12.00;85.49
80132;SHT30;69442;51.442;10.564;2024-02-15T10:10:18;12.00;85.33
80132;SHT30;69442;51.442;10.564;2024-02-15T10:12:46;12.05;85.32
80132;SHT30;69442;51.442;10.564;2024-02-15T10:17:56;12.06;85.29
80132;SHT30;69442;51.442;10.564;2024-02-15T10:20:24;12.06;85.19
80132;SHT30;69442;51.442;10.564;2024-02-15T10:23:12;12.07;84.86
80132;SHT30;69442;51.442;10.564;2024-02-15T10:25:39;12.09;85.36
80132;SHT30;69442;51.442;10.564;2024-02-15T10:28:08;12.13;85.24
80132;SHT30;69442;51.442;10.564;2024-02-15T10:30:38;12.14;85.29
80132;SHT30;69442;51.442;10.564;2024-02-15T10:33:04;12.14;84.84
80132;SHT30;69442;51.442;10.564;2024-02-15T10:35:31;12.16;85.33
80132;SHT30;69442;51.442;10.564;2024-02-15T10:38:07;12.17;85.29
80132;SHT30;69442;51.442;10.564;2024-02-15T10:40:33;12.19;85.31
80132;SHT30;69442;51.442;10.564;2024-02-15T10:42:59;12.23;85.30
80132;SHT30;69442;51.442;10.564;2024-02-15T10:45:25;12.27;85.47
80132;SHT30;69442;51.442;10.564;2024-02-15T10:47:51;12.29;85.50
80132;SHT30;69442;51.442;10.564;2024-02-15T10:50:17;12.31;85.50
80132;SHT30;69442;51.442;10.564;2024-02-15T10:53:10;12.34;85.39
80132;SHT30;69442;51.442;10.564;2024-02-15T10:55:55;12.37;85.38
80132;SHT30;69442;51.442;10.564;2024-02-15T10:58:25;12.41;85.24
80132;SHT30;69442;51.442;10.564;2024-02-15T11:00:51;12.44;84.84
80132;SHT30;69442;51.442;10.564;2024-02-15T11:03:28;12.50;85.38
80132;SHT30;69442;51.442;10.564;2024-02-15T11:05:57;12.51;85.02
80132;SHT30;69442;51.442;10.564;2024-02-15T11:08:26;12.52;84.68
80132;SHT30;69442;51.442;10.564;2024-02-15T11:10:53;12.57;85.00
80132;SHT30;69442;51.442;10.564;2024-02-15T11:13:20;12.65;85.04
80132;SHT30;69442;51.442;10.564;2024-02-15T11:15:46;12.67;84.62
80132;SHT30;69442;51.442;10.564;2024-02-15T11:18:44;12.72;84.53
80132;SHT30;69442;51.442;10.564;2024-02-15T11:21:10;12.71;84.27
80132;SHT30;69442;51.442;10.564;2024-02-15T11:23:36;12.75;84.25
80132;SHT30;69442;51.442;10.564;2024-02-15T11:26:01;12.78;84.58
80132;SHT30;69442;51.442;10.564;2024-02-15T11:30:56;12.88;84.53
80132;SHT30;69442;51.442;10.564;2024-02-15T11:33:31;12.91;84.48
80132;SHT30;69442;51.442;10.564;2024-02-15T11:36:11;12.92;84.28
80132;SHT30;69442;51.442;10.564;2024-02-15T11:38:38;12.99;84.10
80132;SHT30;69442;51.442;10.564;2024-02-15T11:41:07;13.00;83.94
80132;SHT30;69442;51.442;10.564;2024-02-15T11:43:45;13.03;84.16
80132;SHT30;69442;51.442;10.564;2024-02-15T11:46:12;13.07;83.96
80132;SHT30;69442;51.442;10.564;2024-02-15T11:48:41;13.09;84.24
80132;SHT30;69442;51.442;10.564;2024-02-15T11:51:07;13.13;83.71
80132;SHT30;69442;51.442;10.564;2024-02-15T11:53:36;13.14;83.78
80132;SHT30;69442;51.442;10.564;2024-02-15T11:56:03;13.16;83.69
80132;SHT30;69442;51.442;10.564;2024-02-15T11:58:30;13.19;83.70
80132;SHT30;69442;51.442;10.564;2024-02-15T12:01:08;13.19;83.29
80132;SHT30;69442;51.442;10.564;2024-02-15T12:03:54;13.21;83.59
80132;SHT30;69442;51.442;10.564;2024-02-15T12:06:39;13.21;83.21
80132;SHT30;69442;51.442;10.564;2024-02-15T12:09:23;13.24;83.62
80132;SHT30;69442;51.442;10.564;2024-02-15T12:12:09;13.27;83.75
80132;SHT30;69442;51.442;10.564;2024-02-15T12:15:03;13.27;83.82
80132;SHT30;69442;51.442;10.564;2024-02-15T12:17:47;13.33;83.75
80132;SHT30;69442;51.442;10.564;2024-02-15T12:20:32;13.37;82.84
80132;SHT30;69442;51.442;10.564;2024-02-15T12:22:58;13.37;83.10
80132;SHT30;69442;51.442;10.564;2024-02-15T12:25:26;13.37;82.84
80132;SHT30;69442;51.442;10.564;2024-02-15T12:27:58;13.40;82.94
80132;SHT30;69442;51.442;10.564;2024-02-15T12:30:23;13.41;82.79
80132;SHT30;69442;51.442;10.564;2024-02-15T12:32:51;13.48;82.01
80132;SHT30;69442;51.442;10.564;2024-02-15T12:35:21;13.47;82.62
80132;SHT30;69442;51.442;10.564;2024-02-15T12:38:09;13.51;81.86
80132;SHT30;69442;51.442;10.564;2024-02-15T12:40:38;13.53;82.26
80132;SHT30;69442;51.442;10.564;2024-02-15T12:43:05;13.55;83.06
80132;SHT30;69442;51.442;10.564;2024-02-15T12:45:32;13.54;83.55
80132;SHT30;69442;51.442;10.564;2024-02-15T12:47:58;13.55;82.48
80132;SHT30;69442;51.442;10.564;2024-02-15T12:50:27;13.59;82.71
80132;SHT30;69442;51.442;10.564;2024-02-15T12:52:54;13.61;81.87
80132;SHT30;69442;51.442;10.564;2024-02-15T12:55:22;13.65;82.58
80132;SHT30;69442;51.442;10.564;2024-02-15T12:57:53;13.64;82.86
80132;SHT30;69442;51.442;10.564;2024-02-15T13:00:22;13.66;83.42
80132;SHT30;69442;51.442;10.564;2024-02-15T13:02:49;13.66;83.40
80132;SHT30;69442;51.442;10.564;2024-02-15T13:05:18;13.66;82.76
80132;SHT30;69442;51.442;10.564;2024-02-15T13:07:45;13.69;82.60
80132;SHT30;69442;51.442;10.564;2024-02-15T13:10:11;13.69;82.55
80132;SHT30;69442;51.442;10.564;2024-02-15T13:12:37;13.69;82.83
80132;SHT30;69442;51.442;10.564;2024-02-15T13:15:06;13.69;82.10
80132;SHT30;69442;51.442;10.564;2024-02-15T13:17:36;13.69;82.18
80132;SHT30;69442;51.442;10.564;2024-02-15T13:20:02;13.68;82.33
80132;SHT30;69442;51.442;10.564;2024-02-15T13:22:36;13.66;83.37
80132;SHT30;69442;51.442;10.564;2024-02-15T13:25:01;13.65;82.56
80132;SHT30;69442;51.442;10.564;2024-02-15T13:27:28;13.69;83.21
80132;SHT30;69442;51.442;10.564;2024-02-15T13:29:54;13.69;83.43
80132;SHT30;69442;51.442;10.564;2024-02-15T13:32:20;13.69;82.67
80132;SHT30;69442;51.442;10.564;2024-02-15T13:34:49;13.69;83.07
80132;SHT30;69442;51.442;10.564;2024-02-15T13:37:21;13.68;83.27
80132;SHT30;69442;51.442;10.564;2024-02-15T13:39:49;13.68;83.53
80132;SHT30;69442;51.442;10.564;2024-02-15T13:42:15;13.68;83.08
80132;SHT30;69442;51.442;10.564;2024-02-15T13:44:45;13.68;83.54
80132;SHT30;69442;51.442;10.564;2024-02-15T13:47:12;13.69;83.43
80132;SHT30;69442;51.442;10.564;2024-02-15T13:49:38;13.65;83.26
80132;SHT30;69442;51.442;10.564;2024-02-15T13:52:05;13.65;83.39
80132;SHT30;69442;51.442;10.564;2024-02-15T13:54:31;13.65;83.43
80132;SHT30;69442;51.442;10.564;2024-02-15T13:56:57;13.64;83.71
80132;SHT30;69442;51.442;10.564;2024-02-15T13:59:23;13.62;83.99
80132;SHT30;69442;51.442;10.564;2024-02-15T14:01:49;13.65;83.96
80132;SHT30;69442;51.442;10.564;2024-02-15T14:04:15;13.65;84.16
80132;SHT30;69442;51.442;10.564;2024-02-15T14:06:41;13.65;84.30
80132;SHT30;69442;51.442;10.564;2024-02-15T14:09:09;13.66;84.31
80132;SHT30;69442;51.442;10.564;2024-02-15T14:11:36;13.66;84.28
80132;SHT30;69442;51.442;10.564;2024-02-15T14:14:03;13.72;84.14
80132;SHT30;69442;51.442;10.564;2024-02-15T14:16:28;13.71;84.17
80132;SHT30;69442;51.442;10.564;2024-02-15T14:18:55;13.71;84.19
80132;SHT30;69442;51.442;10.564;2024-02-15T14:21:20;13.69;84.14
80132;SHT30;69442;51.442;10.564;2024-02-15T14:23:46;13.75;84.05
80132;SHT30;69442;51.442;10.564;2024-02-15T14:26:11;13.75;84.18
80132;SHT30;69442;51.442;10.564;2024-02-15T14:28:37;13.76;83.77
80132;SHT30;69442;51.442;10.564;2024-02-15T14:31:06;13.78;83.90
80132;SHT30;69442;51.442;10.564;2024-02-15T14:33:50;13.76;83.59
80132;SHT30;69442;51.442;10.564;2024-02-15T14:36:16;13.75;83.42
80132;SHT30;69442;51.442;10.564;2024-02-15T14:38:43;13.72;83.25
80132;SHT30;69442;51.442;10.564;2024-02-15T14:41:09;13.71;82.80
80132;SHT30;69442;51.442;10.564;2024-02-15T14:43:36;13.72;82.95
80132;SHT30;69442;51.442;10.564;2024-02-15T14:46:02;13.71;82.89
80132;SHT30;69442;51.442;10.564;2024-02-15T14:48:31;13.66;82.83
80132;SHT30;69442;51.442;10.564;2024-02-15T14:50:57;13.69;82.86
80132;SHT30;69442;51.442;10.564;2024-02-15T14:53:23;13.66;82.70
80132;SHT30;69442;51.442;10.564;2024-02-15T14:55:48;13.65;82.73
80132;SHT30;69442;51.442;10.564;2024-02-15T14:58:15;13.62;82.58
80132;SHT30;69442;51.442;10.564;2024-02-15T15:00:44;13.59;82.64
80132;SHT30;69442;51.442;10.564;2024-02-15T15:03:12;13.61;83.42
80132;SHT30;69442;51.442;10.564;2024-02-15T15:05:39;13.61;83.02
80132;SHT30;69442;51.442;10.564;2024-02-15T15:08:23;13.59;83.62
80132;SHT30;69442;51.442;10.564;2024-02-15T15:11:07;13.61;83.43
80132;SHT30;69442;51.442;10.564;2024-02-15T15:13:51;13.58;83.88
80132;SHT30;69442;51.442;10.564;2024-02-15T15:16:17;13.57;83.57
80132;SHT30;69442;51.442;10.564;2024-02-15T15:18:46;13.57;83.65
80132;SHT30;69442;51.442;10.564;2024-02-15T15:21:12;13.54;82.92
80132;SHT30;69442;51.442;10.564;2024-02-15T15:23:38;13.50;82.64
80132;SHT30;69442;51.442;10.564;2024-02-15T15:26:07;13.50;82.48
80132;SHT30;69442;51.442;10.564;2024-02-15T15:28:36;13.50;83.25